Time;durP1;ratioP1;P1;durP2;ratioP2;P2;SDS_P1;SDS_P2;PMS_P1;PMS_P2;Temp;Humidity;BMP_temperature;BMP_pressure;BME280_temperature;BME280_humidity;BME280_pressure;Samples;Min_cycle;Max_cycle;Signal;HPM_P1;HPM_P2
2021/04/01 00:01:56;;;;;;;44.10;25.07;;;15.50;79.80;;;;;;4180261;28;20484;-82
2021/04/01 00:03:58;;;;;;;38.33;24.57;;;15.50;80.70;;;;;;4182549;28;20480;-82
2021/04/01 00:06:00;;;;;;;45.30;27.47;;;15.60;81.20;;;;;;4179289;28;20555;-82
2021/04/01 00:08:02;;;;;;;41.13;24.00;;;15.60;81.60;;;;;;4172902;28;20489;-81
2021/04/01 00:10:09;;;;;;;35.87;24.93;;;15.70;82.00;;;;;;4176168;28;20538;-82
2021/04/01 00:12:11;;;;;;;35.90;25.50;;;15.80;82.10;;;;;;4172985;28;20485;-82
2021/04/01 00:14:13;;;;;;;39.23;26.93;;;15.80;81.80;;;;;;4170232;28;20593;-81
2021/04/01 00:16:18;;;;;;;41.60;27.17;;;15.90;81.80;;;;;;4171210;28;20485;-82
2021/04/01 00:18:21;;;;;;;37.97;26.70;;;15.90;81.80;;;;;;4169659;28;21081;-81
2021/04/01 00:20:24;;;;;;;39.17;26.57;;;15.90;81.70;;;;;;4173685;28;20584;-82
2021/04/01 00:22:26;;;;;;;40.97;27.63;;;16.00;81.90;;;;;;4174185;28;20491;-82
2021/04/01 00:24:28;;;;;;;35.40;25.87;;;16.10;81.50;;;;;;4171015;28;20492;-81
2021/04/01 00:26:30;;;;;;;36.97;24.97;;;16.10;81.10;;;;;;4178318;28;20491;-82
2021/04/01 00:28:31;;;;;;;40.03;26.67;;;16.10;80.90;;;;;;4176262;28;20492;-82
2021/04/01 00:30:34;;;;;;;41.57;28.13;;;16.10;81.40;;;;;;4172505;28;20587;-82
2021/04/01 00:32:36;;;;;;;43.03;28.63;;;16.10;81.20;;;;;;4173659;28;20513;-82
2021/04/01 00:34:39;;;;;;;38.27;28.33;;;16.10;80.90;;;;;;4170096;28;20497;-81
2021/04/01 00:36:40;;;;;;;37.50;26.90;;;16.00;81.40;;;;;;4177088;28;20480;-82
2021/04/01 00:38:42;;;;;;;39.13;27.40;;;16.00;81.50;;;;;;4177334;28;20485;-82
2021/04/01 00:40:44;;;;;;;47.97;28.00;;;15.90;82.30;;;;;;4178178;28;20484;-82
2021/04/01 00:42:46;;;;;;;38.47;27.77;;;15.90;82.40;;;;;;4178827;28;20493;-81
2021/04/01 00:44:48;;;;;;;36.37;25.87;;;16.00;82.60;;;;;;4177762;28;20950;-81
2021/04/01 00:46:50;;;;;;;36.70;25.17;;;16.00;82.60;;;;;;4174586;28;21073;-81
2021/04/01 00:48:52;;;;;;;39.13;25.37;;;16.00;82.30;;;;;;4177097;28;20846;-81
2021/04/01 00:50:55;;;;;;;37.63;27.80;;;16.00;81.90;;;;;;4174976;28;21099;-81
2021/04/01 00:52:57;;;;;;;40.93;28.73;;;16.10;82.00;;;;;;4173230;28;20481;-81
2021/04/01 00:55:00;;;;;;;41.57;28.60;;;16.10;81.30;;;;;;4178699;28;20480;-81
2021/04/01 00:57:04;;;;;;;42.17;29.17;;;16.10;81.20;;;;;;4174609;28;20488;-82
2021/04/01 00:59:07;;;;;;;41.77;28.47;;;16.00;81.00;;;;;;4178354;28;20482;-81
2021/04/01 01:01:23;;;;;;;45.17;28.47;;;16.00;81.40;;;;;;4175634;28;20493;-81
2021/04/01 01:03:25;;;;;;;44.93;30.87;;;15.90;81.30;;;;;;4172711;28;20489;-81
2021/04/01 01:05:30;;;;;;;48.17;30.20;;;15.70;81.20;;;;;;4177295;28;20485;-81
2021/04/01 01:07:33;;;;;;;45.23;29.67;;;15.60;81.60;;;;;;4176722;28;20492;-81
2021/04/01 01:09:34;;;;;;;40.07;28.20;;;15.60;82.30;;;;;;4175742;28;21010;-81
2021/04/01 01:11:37;;;;;;;41.00;28.57;;;15.70;83.00;;;;;;4176338;28;20496;-81
2021/04/01 01:13:39;;;;;;;42.60;28.00;;;15.70;83.20;;;;;;4177068;28;20489;-81
2021/04/01 01:15:41;;;;;;;41.67;28.03;;;15.80;83.30;;;;;;4174255;28;20488;-80
2021/04/01 01:17:43;;;;;;;40.87;26.57;;;15.90;83.40;;;;;;4175561;28;20493;-80
2021/04/01 01:19:52;;;;;;;41.23;27.07;;;15.90;83.50;;;;;;4175414;28;20478;-81
2021/04/01 01:21:54;;;;;;;39.30;26.50;;;15.90;83.50;;;;;;4174690;28;20488;-81
2021/04/01 01:23:57;;;;;;;42.07;28.67;;;15.90;83.30;;;;;;4170300;28;20485;-81
2021/04/01 01:26:00;;;;;;;42.93;30.33;;;15.90;83.30;;;;;;4171278;28;20546;-81
2021/04/01 01:28:03;;;;;;;42.10;28.00;;;15.90;83.10;;;;;;4172390;28;20492;-81
2021/04/01 01:30:07;;;;;;;40.87;26.90;;;15.90;82.80;;;;;;4174428;28;20498;-81
2021/04/01 01:32:09;;;;;;;43.77;29.93;;;15.80;82.80;;;;;;4164596;28;20495;-81
2021/04/01 01:34:11;;;;;;;44.63;29.63;;;15.70;83.00;;;;;;4172641;28;20495;-81
2021/04/01 01:36:15;;;;;;;45.80;30.20;;;15.50;83.10;;;;;;4169699;28;20480;-81
2021/04/01 01:38:17;;;;;;;48.73;30.90;;;15.40;82.40;;;;;;4174251;28;20572;-81
2021/04/01 01:40:20;;;;;;;48.07;31.07;;;15.20;82.70;;;;;;4175781;28;20492;-81
2021/04/01 01:42:24;;;;;;;52.33;33.00;;;15.00;83.30;;;;;;4175319;28;20492;-81
2021/04/01 01:44:27;;;;;;;51.50;33.53;;;14.80;84.30;;;;;;4175899;28;20496;-82
2021/04/01 01:46:29;;;;;;;57.63;33.20;;;14.60;85.00;;;;;;4178403;28;21495;-81
2021/04/01 01:48:31;;;;;;;52.73;31.77;;;14.40;85.70;;;;;;4174777;28;20547;-82
2021/04/01 01:50:36;;;;;;;54.57;33.23;;;14.50;86.20;;;;;;4176267;28;20499;-81
2021/04/01 01:52:38;;;;;;;49.67;32.20;;;14.80;86.10;;;;;;4177756;28;20488;-81
2021/04/01 01:54:40;;;;;;;47.93;31.20;;;14.90;85.80;;;;;;4179685;28;20492;-81
2021/04/01 01:56:42;;;;;;;51.40;30.70;;;15.10;85.80;;;;;;4180797;28;20492;-82
2021/04/01 01:58:45;;;;;;;50.83;30.80;;;15.10;86.10;;;;;;4178331;28;20492;-82
2021/04/01 02:00:52;;;;;;;51.90;32.50;;;15.20;86.20;;;;;;4172627;28;21187;-81
2021/04/01 02:02:55;;;;;;;55.90;32.17;;;15.30;86.00;;;;;;4174472;28;20487;-81
2021/04/01 02:04:56;;;;;;;53.00;31.20;;;15.30;85.20;;;;;;4170751;28;21026;-81
2021/04/01 02:06:58;;;;;;;54.30;33.47;;;15.20;85.20;;;;;;4168582;28;20485;-81
2021/04/01 02:09:01;;;;;;;50.60;31.70;;;15.20;85.40;;;;;;4176591;28;20484;-81
2021/04/01 02:11:03;;;;;;;53.17;35.30;;;15.20;85.50;;;;;;4180063;28;20496;-80
2021/04/01 02:13:06;;;;;;;50.87;33.90;;;15.20;85.10;;;;;;4177523;28;20512;-81
2021/04/01 02:15:15;;;;;;;55.97;33.40;;;15.10;85.10;;;;;;4176032;28;20491;-80
2021/04/01 02:17:23;;;;;;;52.37;31.53;;;15.10;85.00;;;;;;4177368;28;21051;-81
2021/04/01 02:19:25;;;;;;;49.47;31.40;;;15.20;85.50;;;;;;4172773;28;20938;-82
2021/04/01 02:21:27;;;;;;;50.83;33.17;;;15.20;85.20;;;;;;4174528;28;20503;-81
2021/04/01 02:23:30;;;;;;;55.43;33.63;;;15.20;85.10;;;;;;4177165;28;20497;-81
2021/04/01 02:25:32;;;;;;;50.23;31.17;;;15.20;85.00;;;;;;4177073;28;20496;-81
2021/04/01 02:27:34;;;;;;;53.97;35.10;;;15.20;85.10;;;;;;4177070;28;20538;-81
2021/04/01 02:29:36;;;;;;;51.17;32.77;;;15.20;85.20;;;;;;4173207;28;20496;-81
2021/04/01 02:31:39;;;;;;;54.53;33.07;;;15.20;85.10;;;;;;4172182;28;20493;-81
2021/04/01 02:33:41;;;;;;;53.10;33.57;;;15.20;85.30;;;;;;4171060;28;20485;-81
2021/04/01 02:35:43;;;;;;;53.47;33.87;;;15.20;85.10;;;;;;4175431;28;20488;-81
2021/04/01 02:37:44;;;;;;;53.07;34.20;;;15.30;85.20;;;;;;4174944;28;20497;-81
2021/04/01 02:39:46;;;;;;;59.87;36.07;;;15.30;85.40;;;;;;4171341;28;20491;-81
2021/04/01 02:41:49;;;;;;;52.63;32.30;;;15.30;84.40;;;;;;4171332;28;20515;-81
2021/04/01 02:43:50;;;;;;;52.83;34.53;;;15.20;84.40;;;;;;4171863;28;20484;-81
2021/04/01 02:45:52;;;;;;;57.77;33.57;;;15.00;85.00;;;;;;4174860;28;20489;-81
2021/04/01 02:47:55;;;;;;;48.93;33.80;;;14.80;85.70;;;;;;4172220;28;20516;-81
2021/04/01 02:49:57;;;;;;;52.37;34.00;;;14.50;86.70;;;;;;4175552;28;20495;-81
2021/04/01 02:51:59;;;;;;;53.47;32.80;;;14.50;86.90;;;;;;4175872;28;20489;-81
2021/04/01 02:54:01;;;;;;;59.83;34.30;;;14.40;87.50;;;;;;4170935;28;20910;-81
2021/04/01 02:56:05;;;;;;;53.87;34.57;;;14.20;88.40;;;;;;4174568;28;21032;-81
2021/04/01 02:58:07;;;;;;;53.03;33.50;;;14.10;89.40;;;;;;4175037;28;20987;-81
2021/04/01 03:00:13;;;;;;;53.10;32.20;;;14.20;89.50;;;;;;4171287;28;20485;-81
2021/04/01 03:02:16;;;;;;;56.70;35.50;;;14.30;89.30;;;;;;4166244;28;20496;-81
2021/04/01 03:04:19;;;;;;;58.27;34.90;;;14.50;89.10;;;;;;4169935;28;20484;-82
2021/04/01 03:06:21;;;;;;;56.77;35.20;;;14.60;88.50;;;;;;4170951;28;20480;-82
2021/04/01 03:08:24;;;;;;;53.87;35.03;;;14.80;87.90;;;;;;4172675;28;20483;-81
2021/04/01 03:10:26;;;;;;;52.13;32.60;;;14.90;87.70;;;;;;4177315;28;20530;-81
2021/04/01 03:12:28;;;;;;;67.70;42.00;;;15.00;87.10;;;;;;4175933;28;21223;-82
2021/04/01 03:14:30;;;;;;;71.83;46.20;;;15.00;87.20;;;;;;4175147;28;22062;-83
2021/04/01 03:16:32;;;;;;;122.07;71.03;;;15.00;86.90;;;;;;4177388;28;20504;-83
2021/04/01 03:18:34;;;;;;;82.03;50.67;;;15.00;86.30;;;;;;4180000;28;21290;-82
2021/04/01 03:20:36;;;;;;;62.17;39.27;;;15.10;86.50;;;;;;4178018;28;20484;-83
2021/04/01 03:22:39;;;;;;;59.33;36.40;;;15.10;86.40;;;;;;4179650;28;20580;-82
2021/04/01 03:24:41;;;;;;;97.63;59.47;;;15.20;86.40;;;;;;4179381;28;20468;-82
2021/04/01 03:26:43;;;;;;;58.23;39.00;;;15.20;85.60;;;;;;4178847;28;20492;-82
2021/04/01 03:28:44;;;;;;;70.40;45.90;;;15.20;85.50;;;;;;4175101;28;20492;-82
2021/04/01 03:30:50;;;;;;;96.00;56.57;;;15.00;86.50;;;;;;4176939;28;20499;-82
2021/04/01 03:32:52;;;;;;;54.23;37.73;;;14.90;86.60;;;;;;4174411;28;20514;-83
2021/04/01 03:34:54;;;;;;;56.23;37.63;;;14.80;86.40;;;;;;4175611;28;20491;-81
2021/04/01 03:36:57;;;;;;;50.50;34.37;;;14.70;87.00;;;;;;4175914;28;20496;-82
2021/04/01 03:38:59;;;;;;;52.03;33.87;;;14.50;87.30;;;;;;4173119;28;20612;-82
2021/04/01 03:41:01;;;;;;;54.43;35.30;;;14.50;88.40;;;;;;4179112;28;20558;-82
2021/04/01 03:43:03;;;;;;;137.93;76.97;;;14.50;88.40;;;;;;4174683;28;20496;-82
2021/04/01 03:45:07;;;;;;;116.13;63.33;;;14.50;88.80;;;;;;4180685;28;20491;-82
2021/04/01 03:47:09;;;;;;;86.80;50.40;;;14.60;88.70;;;;;;4178903;28;20518;-83
2021/04/01 03:49:11;;;;;;;66.40;40.27;;;14.70;88.20;;;;;;4178067;28;20493;-83
2021/04/01 03:51:12;;;;;;;54.10;36.77;;;14.80;88.00;;;;;;4176731;28;20480;-83
2021/04/01 03:53:15;;;;;;;55.67;34.53;;;14.80;87.80;;;;;;4174411;28;20510;-83
2021/04/01 03:55:28;;;;;;;53.90;35.77;;;14.80;88.00;;;;;;4173903;28;20575;-82
2021/04/01 03:57:30;;;;;;;53.30;36.13;;;14.70;88.20;;;;;;4174825;28;20918;-82
2021/04/01 03:59:39;;;;;;;56.83;34.73;;;14.70;87.70;;;;;;4172366;28;21286;-83
2021/04/01 04:02:00;;;;;;;54.30;35.40;;;14.60;87.50;;;;;;4177493;28;20543;-82
2021/04/01 04:04:11;;;;;;;56.63;33.50;;;14.60;87.10;;;;;;4174460;28;20491;-83
2021/04/01 04:06:29;;;;;;;59.00;36.37;;;14.60;87.10;;;;;;4174669;28;20529;-82
2021/04/01 04:08:45;;;;;;;63.87;36.73;;;14.60;87.30;;;;;;4174096;28;20487;-82
2021/04/01 04:10:54;;;;;;;62.77;35.30;;;14.60;87.10;;;;;;4171606;28;20508;-82
2021/04/01 04:13:05;;;;;;;56.53;35.10;;;14.60;86.60;;;;;;4174807;28;20546;-83
2021/04/01 04:15:09;;;;;;;63.23;36.47;;;14.50;86.10;;;;;;4175794;28;20535;-81
2021/04/01 04:17:11;;;;;;;54.67;36.10;;;14.50;86.60;;;;;;4177984;28;21069;-82
2021/04/01 04:19:12;;;;;;;56.43;36.90;;;14.40;86.70;;;;;;4173000;28;20510;-82
2021/04/01 04:21:15;;;;;;;56.43;36.63;;;14.40;86.40;;;;;;4172870;28;20530;-82
2021/04/01 04:23:19;;;;;;;56.90;36.67;;;14.50;86.40;;;;;;4172642;28;20514;-82
2021/04/01 04:25:24;;;;;;;66.43;36.90;;;14.50;86.30;;;;;;4174688;28;20481;-81
2021/04/01 04:27:44;;;;;;;64.73;35.20;;;14.50;86.30;;;;;;4179967;28;20970;-83
2021/04/01 04:29:46;;;;;;;60.10;37.00;;;14.40;86.30;;;;;;4174126;28;20500;-82
2021/04/01 04:31:48;;;;;;;61.27;36.47;;;14.30;86.70;;;;;;4180489;28;20494;-81
2021/04/01 04:33:49;;;;;;;61.90;36.80;;;14.40;86.70;;;;;;4172472;28;20505;-82
2021/04/01 04:35:51;;;;;;;59.70;39.77;;;14.50;86.10;;;;;;4173631;28;20493;-81
2021/04/01 04:37:53;;;;;;;58.37;37.83;;;14.50;85.90;;;;;;4170876;28;20493;-81
2021/04/01 04:39:55;;;;;;;60.23;37.23;;;14.60;86.20;;;;;;4176717;28;20473;-83
2021/04/01 04:41:58;;;;;;;55.57;35.73;;;14.60;85.80;;;;;;4188292;28;20489;-83
2021/04/01 04:44:00;;;;;;;55.57;36.40;;;14.60;85.60;;;;;;4186803;28;20495;-83
2021/04/01 04:46:01;;;;;;;58.23;36.97;;;14.60;85.50;;;;;;4186544;28;20487;-82
2021/04/01 04:48:04;;;;;;;56.80;37.40;;;14.50;85.80;;;;;;4181221;28;20489;-81
2021/04/01 04:50:07;;;;;;;64.50;41.80;;;14.60;85.70;;;;;;4177050;28;20496;-81
2021/04/01 04:52:10;;;;;;;61.13;38.93;;;14.60;85.60;;;;;;4177506;28;21151;-82
2021/04/01 04:54:12;;;;;;;72.27;44.93;;;14.50;86.00;;;;;;4177176;28;20554;-83
2021/04/01 04:56:14;;;;;;;61.27;36.10;;;14.40;86.20;;;;;;4179837;28;20485;-82
2021/04/01 04:58:21;;;;;;;59.63;37.97;;;14.40;86.10;;;;;;4176938;28;20490;-82
2021/04/01 05:05:09;;;;;;;59.10;36.60;;;14.20;86.30;;;;;;4177549;28;20483;-81
2021/04/01 05:07:11;;;;;;;65.23;40.00;;;14.10;86.50;;;;;;4172558;28;20487;-80
2021/04/01 05:09:13;;;;;;;58.30;38.23;;;14.10;86.60;;;;;;4172191;28;20492;-83
2021/04/01 05:11:15;;;;;;;57.13;38.17;;;14.10;86.10;;;;;;4167090;28;20912;-82
2021/04/01 05:13:18;;;;;;;64.30;39.80;;;14.20;85.90;;;;;;4171888;28;20492;-83
2021/04/01 05:15:20;;;;;;;67.10;38.20;;;14.20;85.60;;;;;;4172577;28;20503;-83
2021/04/01 05:17:23;;;;;;;68.47;41.43;;;14.10;85.80;;;;;;4173089;28;20496;-83
2021/04/01 05:19:26;;;;;;;78.57;44.33;;;14.10;86.10;;;;;;4166316;28;20499;-83
2021/04/01 05:21:33;;;;;;;67.47;41.93;;;14.20;86.00;;;;;;4169429;28;20496;-83
2021/04/01 05:23:37;;;;;;;65.57;38.30;;;14.20;85.40;;;;;;4174153;28;20493;-83
2021/04/01 05:25:40;;;;;;;63.77;36.97;;;14.20;85.00;;;;;;4171419;28;20507;-82
2021/04/01 05:27:44;;;;;;;63.33;37.43;;;14.20;85.20;;;;;;4176013;28;20528;-82
2021/04/01 05:29:59;;;;;;;70.60;38.70;;;14.20;85.60;;;;;;4171747;28;20495;-82
2021/04/01 05:32:03;;;;;;;60.67;36.47;;;14.20;85.80;;;;;;4175855;28;20492;-83
2021/04/01 05:34:05;;;;;;;70.27;37.27;;;14.10;85.80;;;;;;4168534;28;20494;-83
2021/04/01 05:36:08;;;;;;;70.83;40.43;;;14.10;86.40;;;;;;4170848;28;20492;-83
2021/04/01 05:38:10;;;;;;;66.77;40.30;;;14.10;86.80;;;;;;4169415;28;20496;-81
2021/04/01 05:40:13;;;;;;;69.40;40.67;;;14.20;86.30;;;;;;4169114;28;20479;-83
2021/04/01 05:42:17;;;;;;;73.73;40.63;;;14.20;86.10;;;;;;4173692;28;20492;-82
2021/04/01 05:44:22;;;;;;;62.10;37.00;;;14.30;85.80;;;;;;4169806;28;20515;-83
2021/04/01 05:46:29;;;;;;;66.57;39.10;;;14.30;85.90;;;;;;4167703;28;20552;-82
2021/04/01 05:48:37;;;;;;;57.20;37.43;;;14.30;86.40;;;;;;4172285;28;20928;-83
2021/04/01 05:50:50;;;;;;;60.80;37.60;;;14.40;86.50;;;;;;4171947;28;20506;-81
2021/04/01 05:58:05;;;;;;;62.73;37.80;;;14.50;86.40;;;;;;4170735;28;20867;-83
2021/04/01 06:03:00;;;;;;;64.47;38.07;;;14.50;85.70;;;;;;4105352;28;20492;-82
2021/04/01 06:05:07;;;;;;;61.03;37.83;;;14.50;85.50;;;;;;4105327;28;20571;-82
2021/04/01 06:07:19;;;;;;;85.30;51.83;;;14.60;85.30;;;;;;4107478;28;20500;-82
2021/04/01 06:09:25;;;;;;;166.63;100.03;;;14.50;85.60;;;;;;4170804;28;20490;-83
2021/04/01 06:11:27;;;;;;;143.60;85.53;;;14.40;85.90;;;;;;4170134;28;20583;-83
2021/04/01 06:13:30;;;;;;;76.90;46.17;;;14.40;86.10;;;;;;4172832;28;20485;-83
2021/04/01 06:15:35;;;;;;;87.17;54.00;;;14.40;86.10;;;;;;4172934;28;21320;-83
2021/04/01 06:17:45;;;;;;;150.97;81.87;;;14.40;86.30;;;;;;4170280;28;21011;-82
2021/04/01 06:19:49;;;;;;;151.20;88.27;;;14.40;86.40;;;;;;4169841;28;20499;-83
2021/04/01 06:21:50;;;;;;;77.27;44.67;;;14.30;86.70;;;;;;4173435;28;20477;-82
2021/04/01 06:24:02;;;;;;;63.57;37.83;;;14.20;86.60;;;;;;4173227;28;20490;-82
2021/04/01 06:26:13;;;;;;;61.73;37.63;;;14.20;87.00;;;;;;4174570;28;20502;-82
2021/04/01 06:28:17;;;;;;;58.03;38.53;;;14.20;87.10;;;;;;4178067;28;20572;-82
2021/04/01 06:30:22;;;;;;;64.00;38.47;;;14.10;87.30;;;;;;4172931;28;20622;-82
2021/04/01 06:32:25;;;;;;;67.70;39.63;;;14.20;87.20;;;;;;4179840;28;20488;-82
2021/04/01 06:34:39;;;;;;;65.30;38.53;;;14.20;87.40;;;;;;4178312;28;20501;-82
2021/04/01 06:36:50;;;;;;;64.27;39.40;;;14.20;87.40;;;;;;4175476;28;20507;-82
2021/04/01 06:38:54;;;;;;;78.13;41.73;;;14.30;87.40;;;;;;4176054;28;20502;-83
2021/04/01 06:41:04;;;;;;;71.70;38.83;;;14.30;86.80;;;;;;4179147;28;20490;-82
2021/04/01 06:43:11;;;;;;;70.90;41.07;;;14.20;86.70;;;;;;4173512;28;20488;-81
2021/04/01 06:45:18;;;;;;;64.07;38.60;;;14.20;86.90;;;;;;4178533;28;20488;-82
2021/04/01 06:47:25;;;;;;;75.30;40.63;;;14.10;87.00;;;;;;4177954;28;20519;-81
2021/04/01 06:49:48;;;;;;;249.53;160.47;;;14.10;87.40;;;;;;4170418;28;20833;-81
2021/04/01 06:51:58;;;;;;;130.60;74.43;;;14.30;87.40;;;;;;4165158;28;20492;-82
2021/04/01 06:54:07;;;;;;;109.07;63.90;;;14.30;87.40;;;;;;4169821;28;20546;-82
2021/04/01 06:56:37;;;;;;;65.03;38.27;;;14.30;87.40;;;;;;4165419;28;20477;-84
2021/04/01 06:58:52;;;;;;;68.80;40.77;;;14.20;87.50;;;;;;4169096;28;20510;-82
2021/04/01 07:01:10;;;;;;;68.43;41.63;;;14.30;87.70;;;;;;4176261;28;20852;-83
2021/04/01 07:03:20;;;;;;;67.80;38.87;;;14.30;88.00;;;;;;4177518;28;20495;-82
2021/04/01 07:05:25;;;;;;;63.00;37.87;;;14.20;87.90;;;;;;4171507;28;20994;-82
2021/04/01 07:07:29;;;;;;;63.23;36.83;;;14.20;88.00;;;;;;4172402;28;20868;-81
2021/04/01 07:09:36;;;;;;;62.53;39.07;;;14.20;88.20;;;;;;4172015;28;20484;-82
2021/04/01 07:11:40;;;;;;;62.93;37.90;;;14.30;88.00;;;;;;4174644;28;20481;-83
2021/04/01 07:13:48;;;;;;;63.10;39.73;;;14.30;88.00;;;;;;4173311;28;20901;-82
2021/04/01 07:15:53;;;;;;;66.07;38.27;;;14.20;88.10;;;;;;4171737;28;20500;-82
2021/04/01 07:18:05;;;;;;;67.80;39.93;;;14.20;88.30;;;;;;4170048;28;20496;-83
2021/04/01 07:20:25;;;;;;;65.57;38.70;;;14.20;88.10;;;;;;4168438;28;20496;-82
2021/04/01 07:32:27;;;;;;;68.00;38.70;;;14.40;88.50;;;;;;4165475;28;20480;-81
2021/04/01 07:34:45;;;;;;;68.20;38.53;;;14.50;88.60;;;;;;4174286;28;20500;-82
2021/04/01 07:46:28;;;;;;;63.63;38.00;;;14.40;89.80;;;;;;4175316;28;20507;-83
2021/04/01 07:48:37;;;;;;;61.10;37.90;;;14.40;90.40;;;;;;4173827;28;20574;-82
2021/04/01 07:50:41;;;;;;;61.87;38.27;;;14.40;91.00;;;;;;4175133;28;20511;-81
2021/04/01 07:52:50;;;;;;;62.03;37.20;;;14.40;91.60;;;;;;4176588;28;20495;-83
2021/04/01 07:55:06;;;;;;;61.00;35.80;;;14.40;92.30;;;;;;4174435;28;20523;-84
2021/04/01 07:57:28;;;;;;;54.07;35.80;;;14.50;92.80;;;;;;4175517;28;20611;-83
2021/04/01 07:59:34;;;;;;;65.97;39.33;;;14.50;92.60;;;;;;4174921;28;21035;-83
2021/04/01 08:01:47;;;;;;;68.67;38.93;;;14.50;92.80;;;;;;4175187;28;20484;-83
2021/04/01 08:03:56;;;;;;;68.63;40.40;;;14.60;93.00;;;;;;4176221;28;20481;-84
2021/04/01 08:05:58;;;;;;;73.97;43.00;;;14.50;93.60;;;;;;4181090;28;20485;-82
2021/04/01 08:08:04;;;;;;;86.67;50.03;;;14.40;94.00;;;;;;4176743;28;20495;-81
2021/04/01 08:10:09;;;;;;;136.17;71.63;;;14.40;94.20;;;;;;4176259;28;20493;-84
2021/04/01 08:12:20;;;;;;;78.10;44.10;;;14.60;94.20;;;;;;4175094;28;20491;-82
2021/04/01 08:14:31;;;;;;;67.77;41.63;;;14.60;94.40;;;;;;4174354;28;20506;-84
2021/04/01 08:16:38;;;;;;;72.67;42.37;;;14.70;94.40;;;;;;4176192;28;20492;-83
2021/04/01 08:18:48;;;;;;;88.70;53.33;;;14.60;93.70;;;;;;4174404;28;20502;-84
2021/04/01 08:20:54;;;;;;;64.93;40.43;;;14.70;93.50;;;;;;4173217;28;21030;-81
2021/04/01 08:23:20;;;;;;;61.20;37.30;;;14.70;93.90;;;;;;4173892;28;20484;-83
2021/04/01 08:25:47;;;;;;;63.67;36.53;;;14.80;93.70;;;;;;4173483;28;20866;-84
2021/04/01 08:28:23;;;;;;;55.77;34.40;;;14.90;93.20;;;;;;4174502;28;20519;-83
2021/04/01 08:33:34;;;;;;;91.10;54.50;;;15.00;92.40;;;;;;4175919;28;21127;-83
2021/04/01 08:35:59;;;;;;;52.40;33.27;;;15.40;91.90;;;;;;4172473;28;20530;-82
2021/04/01 08:38:21;;;;;;;43.73;27.07;;;15.50;90.60;;;;;;4174869;28;20507;-83
2021/04/01 08:40:45;;;;;;;47.27;29.77;;;15.50;90.60;;;;;;4174878;28;20852;-83
2021/04/01 08:44:00;;;;;;;42.50;27.37;;;15.70;90.20;;;;;;4172517;28;20476;-83
2021/04/01 08:46:59;;;;;;;37.50;25.17;;;15.70;90.00;;;;;;4171960;28;20570;-81
2021/04/01 08:49:20;;;;;;;41.10;27.53;;;15.60;90.30;;;;;;4161093;28;21028;-82
2021/04/01 08:52:02;;;;;;;40.40;25.97;;;15.30;90.90;;;;;;4173672;28;20532;-83
2021/04/01 08:54:12;;;;;;;44.60;26.10;;;15.40;91.60;;;;;;4134979;28;20568;-81
2021/04/01 08:56:25;;;;;;;34.80;24.40;;;15.60;91.70;;;;;;4175469;28;20531;-83
2021/04/01 08:58:40;;;;;;;36.43;23.97;;;15.70;91.60;;;;;;4174643;28;20529;-83
2021/04/01 09:01:14;;;;;;;32.57;21.90;;;15.80;91.40;;;;;;4176003;28;20484;-83
2021/04/01 09:03:28;;;;;;;51.03;33.83;;;15.80;91.30;;;;;;4176011;28;20530;-82
2021/04/01 09:05:31;;;;;;;102.60;66.67;;;15.90;91.40;;;;;;4173787;28;21277;-83
2021/04/01 09:07:40;;;;;;;40.00;28.67;;;16.00;91.40;;;;;;4177229;28;20584;-81
2021/04/01 09:09:46;;;;;;;27.70;18.80;;;16.10;91.30;;;;;;4174000;28;20491;-81
2021/04/01 09:11:53;;;;;;;27.00;18.33;;;16.30;90.90;;;;;;4173518;28;20488;-84
2021/04/01 09:13:55;;;;;;;58.40;39.67;;;16.50;90.90;;;;;;4173911;28;20499;-82
2021/04/01 09:16:27;;;;;;;55.80;38.40;;;16.80;90.30;;;;;;4174738;28;20489;-84
2021/04/01 09:18:32;;;;;;;23.73;17.60;;;17.20;89.00;;;;;;4174209;28;20503;-82
2021/04/01 09:20:34;;;;;;;19.37;14.63;;;17.30;87.40;;;;;;4174290;28;20484;-84
2021/04/01 09:22:43;;;;;;;37.53;25.63;;;17.10;87.10;;;;;;4174166;28;20498;-84
2021/04/01 09:24:45;;;;;;;35.50;23.63;;;17.00;87.60;;;;;;4174926;28;20491;-82
2021/04/01 09:26:48;;;;;;;29.33;19.40;;;17.10;87.70;;;;;;4173319;28;20511;-84
2021/04/01 09:28:59;;;;;;;26.67;20.23;;;17.20;87.70;;;;;;4177838;28;20499;-82
2021/04/01 09:31:03;;;;;;;24.93;17.37;;;17.50;87.30;;;;;;4174725;28;20503;-82
2021/04/01 09:33:10;;;;;;;22.10;15.43;;;17.80;86.40;;;;;;4174474;28;20497;-82
2021/04/01 09:35:13;;;;;;;17.83;14.77;;;17.80;85.80;;;;;;4175907;28;20976;-82
2021/04/01 09:37:17;;;;;;;18.13;13.50;;;17.50;85.80;;;;;;4170943;28;20499;-82
2021/04/01 09:39:31;;;;;;;16.97;13.10;;;17.50;86.00;;;;;;4176376;28;20487;-82
2021/04/01 09:41:35;;;;;;;16.57;12.33;;;17.10;86.80;;;;;;4173332;28;20491;-82
2021/04/01 09:43:49;;;;;;;16.57;12.73;;;17.30;86.60;;;;;;4177097;28;20575;-82
2021/04/01 09:45:54;;;;;;;16.50;12.77;;;17.30;86.90;;;;;;4171477;28;20492;-82
2021/04/01 09:48:00;;;;;;;15.47;12.40;;;17.10;86.60;;;;;;4177143;28;20491;-82
2021/04/01 09:50:06;;;;;;;17.03;12.50;;;16.90;87.00;;;;;;4173876;28;20489;-82
2021/04/01 09:52:11;;;;;;;17.00;9.90;;;16.60;88.20;;;;;;4171213;28;20495;-82
2021/04/01 09:54:16;;;;;;;13.03;8.87;;;16.20;88.80;;;;;;4173956;28;20496;-82
2021/04/01 09:56:23;;;;;;;12.10;9.10;;;16.00;89.60;;;;;;4172088;28;20539;-82
2021/04/01 09:58:30;;;;;;;16.53;10.03;;;15.90;90.10;;;;;;4172821;28;20608;-82
2021/04/01 10:00:49;;;;;;;11.00;8.47;;;15.90;90.40;;;;;;4174438;28;20491;-82
2021/04/01 10:03:03;;;;;;;13.93;9.40;;;15.60;91.10;;;;;;4170872;28;20532;-82
2021/04/01 10:05:06;;;;;;;12.63;9.20;;;15.40;91.80;;;;;;4172986;28;20480;-82
2021/04/01 10:07:14;;;;;;;12.97;9.53;;;15.20;92.60;;;;;;4173946;28;20877;-82
2021/04/01 10:09:17;;;;;;;14.03;9.67;;;14.90;93.50;;;;;;4171378;28;20573;-82
2021/04/01 10:11:28;;;;;;;14.13;11.60;;;14.70;94.50;;;;;;4173861;28;20496;-82
2021/04/01 10:13:32;;;;;;;15.93;9.20;;;14.60;95.00;;;;;;4174196;28;20854;-82
2021/04/01 10:15:36;;;;;;;12.63;8.53;;;14.60;95.00;;;;;;4173037;28;21308;-82
2021/04/01 10:17:39;;;;;;;11.43;8.60;;;14.60;94.70;;;;;;4179718;28;20499;-82
2021/04/01 10:19:43;;;;;;;12.07;8.50;;;14.60;95.00;;;;;;4171400;28;21033;-82
2021/04/01 10:21:45;;;;;;;10.77;7.70;;;14.60;94.80;;;;;;4174486;28;20492;-82
2021/04/01 10:23:49;;;;;;;14.97;7.40;;;14.50;95.00;;;;;;4170585;28;20491;-82
2021/04/01 10:25:53;;;;;;;11.40;7.60;;;14.50;95.40;;;;;;4173758;28;20500;-82
2021/04/01 10:28:01;;;;;;;12.40;7.80;;;14.50;95.70;;;;;;4171838;28;20583;-82
2021/04/01 10:30:08;;;;;;;14.57;7.80;;;14.30;96.40;;;;;;4173599;28;20496;-82
2021/04/01 10:32:11;;;;;;;15.07;8.57;;;14.20;96.60;;;;;;4175128;28;21033;-81
2021/04/01 10:34:31;;;;;;;11.33;8.43;;;14.10;96.90;;;;;;4172253;28;20487;-82
2021/04/01 10:36:38;;;;;;;10.30;7.23;;;14.00;97.10;;;;;;4172651;28;20484;-82
2021/04/01 10:38:42;;;;;;;10.73;7.07;;;13.90;97.50;;;;;;4175767;28;20501;-82
2021/04/01 10:40:48;;;;;;;12.73;7.67;;;14.10;97.20;;;;;;4169370;28;20489;-82
2021/04/01 10:43:03;;;;;;;169.90;107.33;;;14.30;96.40;;;;;;4171943;28;20491;-82
2021/04/01 10:45:12;;;;;;;35.17;23.43;;;14.50;95.90;;;;;;4172486;28;20500;-81
2021/04/01 10:47:15;;;;;;;8.03;6.40;;;14.80;94.90;;;;;;4171438;28;20484;-82
2021/04/01 10:49:22;;;;;;;6.80;5.50;;;14.90;93.60;;;;;;4175563;28;20496;-82
2021/04/01 10:51:25;;;;;;;7.23;4.80;;;15.00;93.00;;;;;;4174901;28;20504;-82
2021/04/01 10:53:26;;;;;;;7.67;5.93;;;14.90;92.90;;;;;;4171227;28;20491;-82
2021/04/01 10:55:31;;;;;;;14.50;10.83;;;14.90;92.90;;;;;;4171789;28;20480;-82
2021/04/01 10:57:34;;;;;;;11.20;7.30;;;14.80;93.40;;;;;;4170306;28;20492;-82
2021/04/01 10:59:39;;;;;;;9.87;5.47;;;14.60;94.10;;;;;;4170095;28;20518;-82
2021/04/01 11:01:43;;;;;;;8.00;5.53;;;14.50;94.60;;;;;;4172192;28;20492;-82
2021/04/01 11:03:48;;;;;;;5.60;4.93;;;14.30;95.30;;;;;;4171248;28;20503;-82
2021/04/01 11:05:51;;;;;;;7.40;5.70;;;14.10;96.40;;;;;;4172409;28;20499;-82
2021/04/01 11:08:05;;;;;;;8.40;5.70;;;14.00;97.30;;;;;;4171926;28;20491;-82
2021/04/01 11:10:09;;;;;;;7.73;6.00;;;13.90;97.60;;;;;;4172901;28;20491;-82
2021/04/01 11:12:17;;;;;;;5.33;4.47;;;14.00;98.00;;;;;;4169065;28;20497;-82
2021/04/01 11:14:23;;;;;;;7.87;5.60;;;14.10;97.60;;;;;;4173766;28;20578;-82
2021/04/01 11:16:29;;;;;;;7.67;5.03;;;14.10;97.70;;;;;;4175808;28;20492;-82
2021/04/01 11:18:31;;;;;;;7.93;5.20;;;14.10;98.00;;;;;;4172172;28;20491;-82